Private Wetterstation Nrnberg - Katzwang
Wetterdaten: Mrz 2012
Datum Temp. A. Feuchte A. Luftdruck Regen Wind Richtung Taupunkt Windchill Windben
01.03.2012 8,6 C 87 % 1022 hPa 0,0 l/m 0,0 km/h NO 6,5 C 8,6 C 1,0 km/h
02.03.2012 6,4 C 87 % 1023 hPa 0,0 l/m 3,3 km/h O 4,4 C 6,4 C 4,3 km/h
03.03.2012 6,6 C 86 % 1021 hPa 0,0 l/m 1,7 km/h NO 4,3 C 6,5 C 2,7 km/h
04.03.2012 4,5 C 83 % 1017 hPa 0,0 l/m 1,5 km/h O 1,9 C 4,5 C 2,5 km/h
05.03.2012 3,1 C 80 % 1018 hPa 0,0 l/m 5,7 km/h W-NW -0,0 C 1,2 C 6,7 km/h
06.03.2012 0,8 C 77 % 1023 hPa 0,0 l/m 3,4 km/h NO -3,0 C -0,4 C 4,4 km/h
07.03.2012 3,8 C 71 % 1018 hPa 0,0 l/m 2,4 km/h W-NW -1,2 C 3,8 C 3,4 km/h
08.03.2012 2,7 C 85 % 1024 hPa 5,7 l/m 2,8 km/h W-NW 0,4 C 2,7 C 3,8 km/h
09.03.2012 1,2 C 77 % 1034 hPa 0,0 l/m 0,7 km/h O-NO -2,6 C 1,2 C 1,7 km/h
10.03.2012 6,3 C 74 % 1031 hPa 0,0 l/m 2,4 km/h NO 1,9 C 6,3 C 3,4 km/h
11.03.2012 7,2 C 81 % 1027 hPa 0,0 l/m 4,6 km/h W-NW 4,2 C 6,9 C 5,6 km/h
12.03.2012 8,2 C 81 % 1027 hPa 0,0 l/m 1,2 km/h W-NW 5,2 C 8,2 C 2,2 km/h
13.03.2012 6,9 C 79 % 1028 hPa 0,0 l/m 2,6 km/h N 3,5 C 6,2 C 3,6 km/h
14.03.2012 6,1 C 77 % 1028 hPa 0,0 l/m 4,3 km/h N-NO 2,4 C 4,9 C 5,3 km/h
15.03.2012 6,4 C 74 % 1025 hPa 0,0 l/m 1,5 km/h O-NO 1,8 C 6,4 C 2,5 km/h
16.03.2012 9,6 C 63 % 1019 hPa 0,0 l/m 3,6 km/h NO 1,9 C 9,0 C 4,6 km/h
17.03.2012 10,4 C 57 % 1015 hPa 0,0 l/m 1,4 km/h W-NW 0,8 C 10,4 C 2,3 km/h
18.03.2012 9,4 C 72 % 1014 hPa 3,1 l/m 2,2 km/h W-NW 4,3 C 9,1 C 3,2 km/h
19.03.2012 5,5 C 75 % 1026 hPa 0,0 l/m 1,2 km/h N 1,3 C 5,5 C 2,2 km/h
20.03.2012 4,8 C 62 % 1031 hPa 0,0 l/m 0,0 km/h N-NO -2,6 C 4,8 C 1,0 km/h
21.03.2012 6,6 C 60 % 1031 hPa 0,0 l/m 0,9 km/h NO -1,4 C 6,6 C 1,9 km/h
22.03.2012 9,7 C 66 % 1026 hPa 0,0 l/m 3,4 km/h O-NO 3,1 C 9,0 C 4,4 km/h
23.03.2012 10,6 C 68 % 1023 hPa 0,0 l/m 1,5 km/h NO 4,6 C 10,6 C 2,5 km/h
24.03.2012 9,5 C 71 % 1023 hPa 0,0 l/m 4,6 km/h O 4,0 C 8,6 C 7,0 km/h
25.03.2012 10,0 C 62 % 1026 hPa 0,0 l/m 1,5 km/h N-NO 2,5 C 10,0 C 2,5 km/h
26.03.2012 9,9 C 55 % 1029 hPa 0,0 l/m 4,8 km/h N-NO 0,7 C 9,8 C 5,8 km/h
27.03.2012 9,8 C 61 % 1028 hPa 0,0 l/m 1,0 km/h W-NW 2,2 C 9,8 C 2,0 km/h
28.03.2012 10,1 C 63 % 1023 hPa 0,0 l/m 2,6 km/h N 2,9 C 9,8 C 3,6 km/h
29.03.2012 9,3 C 65 % 1016 hPa 0,0 l/m 7,2 km/h W-NW 2,8 C 7,9 C 8,2 km/h
30.03.2012 8,9 C 76 % 1013 hPa 0,0 l/m 9,8 km/h W-NW 4,8 C 5,9 C 10,8 km/h
31.03.2012 7,1 C 68 % 1008 hPa 0,0 l/m 7,2 km/h W-NW 1,5 C 4,7 C 13,8 km/h
Min-Datum 07.03.12 17.03.12 31.03.12 2 Tage 01.03.12 - 07.03.12 08.03.12 01.03.12
Min-Zeit 06:50 13:40 14:00 - 00:00 - 06:50 09:30 00:00
Minimum -4,6 C 24 % 1006 hPa - 0,0 km/h - -6,6 C -5,9 C 1,0 km/h
Max-Datum 16.03.12 01.03.12 09.03.12 08.03.12 30.03.12 - 23.03.12 16.03.12 31.03.12
Max-Zeit 14:10 04:20 09:20 15:50 07:20 - 13:20 14:10 15:30
Maximum 22,1 C 88 % 1035 hPa 5,7 l/m 36,3 km/h
W-NW
- 9,3 C 22,1 C 56,4 km/h
W-NW
Durchschnitt 7,1 C 72 % 1023 hPa #8,8 l/m 2,9 km/h W-NW 2,0 C 6,6 C 4,2 km/h

Durchschnitt Minimum Temp.1,5 C
Durchschnitt Maximum Temp.13,6 C